Time;durP1;ratioP1;P1;durP2;ratioP2;P2;SDS_P1;SDS_P2;PMS_P1;PMS_P2;Temp;Humidity;BMP_temperature;BMP_pressure;BME280_temperature;BME280_humidity;BME280_pressure;Samples;Min_cycle;Max_cycle;Signal;HPM_P1;HPM_P2
2022/08/20 00:01:02;;;;;;;11.02;4.88;;;19.90;99.90;;;;;;4972448;28;37234;-58
2022/08/20 00:03:33;;;;;;;15.45;4.63;;;19.90;99.90;;;;;;4971661;28;36414;-59
2022/08/20 00:06:03;;;;;;;12.18;4.70;;;19.80;99.90;;;;;;4971887;28;36980;-59
2022/08/20 00:08:32;;;;;;;12.68;5.18;;;19.80;99.90;;;;;;4972561;28;40173;-59
2022/08/20 00:11:01;;;;;;;12.70;5.20;;;19.80;99.90;;;;;;4972804;28;35277;-59
2022/08/20 00:13:31;;;;;;;11.95;4.93;;;19.80;99.90;;;;;;4971223;28;37709;-58
2022/08/20 00:15:58;;;;;;;11.35;4.53;;;19.90;99.90;;;;;;4971924;28;39252;-59
2022/08/20 00:18:26;;;;;;;11.85;5.15;;;19.80;99.90;;;;;;4971848;28;36343;-60
2022/08/20 00:20:56;;;;;;;7.47;4.22;;;19.90;99.90;;;;;;4971141;28;36427;-59
2022/08/20 00:23:24;;;;;;;8.27;4.40;;;19.80;99.90;;;;;;4971520;28;37407;-59
2022/08/20 00:25:53;;;;;;;9.55;4.47;;;19.80;99.90;;;;;;4971404;28;38291;-58
2022/08/20 00:28:21;;;;;;;10.70;4.43;;;19.90;99.90;;;;;;4969896;28;38073;-59
2022/08/20 00:30:49;;;;;;;14.98;4.63;;;19.80;99.90;;;;;;4971730;28;35541;-59
2022/08/20 00:33:18;;;;;;;9.57;4.15;;;19.90;99.90;;;;;;4972298;28;37349;-59
2022/08/20 00:35:50;;;;;;;11.95;3.90;;;19.90;99.90;;;;;;4971634;28;38356;-59
2022/08/20 00:38:18;;;;;;;8.00;4.30;;;19.90;99.90;;;;;;4972437;28;37849;-59
2022/08/20 00:40:49;;;;;;;11.32;4.25;;;19.90;99.90;;;;;;4971206;28;36466;-59
2022/08/20 00:43:42;;;;;;;12.38;4.50;;;19.80;99.90;;;;;;4970834;28;36165;-59
2022/08/20 00:46:14;;;;;;;11.82;4.43;;;19.80;99.90;;;;;;4957044;28;39013;-59
2022/08/20 00:48:46;;;;;;;10.90;4.38;;;19.90;99.90;;;;;;4971641;28;39152;-59
2022/08/20 00:51:20;;;;;;;12.50;4.72;;;19.80;99.90;;;;;;4971921;28;36335;-59
2022/08/20 00:53:48;;;;;;;12.07;4.38;;;19.90;99.90;;;;;;4972436;28;38543;-59
2022/08/20 00:56:15;;;;;;;9.13;3.50;;;19.80;99.90;;;;;;4971735;28;36833;-59
2022/08/20 00:58:45;;;;;;;10.60;4.78;;;19.90;99.90;;;;;;4970975;28;38757;-59
2022/08/20 01:01:14;;;;;;;11.05;4.28;;;19.90;99.90;;;;;;4970891;28;37582;-59
2022/08/20 01:03:41;;;;;;;9.93;4.10;;;19.90;99.90;;;;;;4971474;28;37658;-59
2022/08/20 01:06:10;;;;;;;10.20;4.60;;;19.90;99.90;;;;;;4972299;28;36618;-59
2022/08/20 01:08:38;;;;;;;16.75;3.90;;;19.90;99.90;;;;;;4971413;28;37895;-59
2022/08/20 01:11:08;;;;;;;8.00;3.63;;;19.90;99.90;;;;;;4971085;28;39424;-59
2022/08/20 01:13:38;;;;;;;11.68;4.32;;;19.90;99.90;;;;;;4970388;28;37712;-59
2022/08/20 01:16:14;;;;;;;10.65;4.35;;;19.80;99.90;;;;;;4971665;28;38077;-59
2022/08/20 01:18:42;;;;;;;9.05;4.03;;;19.80;99.90;;;;;;4970648;28;38710;-59
2022/08/20 01:21:10;;;;;;;10.77;4.32;;;19.80;99.90;;;;;;4971119;28;35220;-59
2022/08/20 01:23:44;;;;;;;9.57;3.45;;;19.80;99.90;;;;;;4971583;28;38595;-59
2022/08/20 01:26:16;;;;;;;10.15;3.85;;;19.80;99.90;;;;;;4970524;28;39161;-59
2022/08/20 01:28:47;;;;;;;11.37;4.00;;;19.80;99.90;;;;;;4971834;28;36676;-58
2022/08/20 01:31:17;;;;;;;14.07;4.80;;;19.70;99.90;;;;;;4970813;28;36565;-58
2022/08/20 01:33:46;;;;;;;10.20;4.20;;;19.70;99.90;;;;;;4971142;28;37841;-59
2022/08/20 01:36:16;;;;;;;10.07;4.25;;;19.70;99.90;;;;;;4970897;28;38781;-59
2022/08/20 01:38:44;;;;;;;15.38;4.32;;;19.70;99.90;;;;;;4971370;28;37676;-59
2022/08/20 01:41:34;;;;;;;10.23;4.18;;;19.60;99.90;;;;;;4970473;28;36541;-59
2022/08/20 01:44:02;;;;;;;10.55;3.75;;;19.60;99.90;;;;;;4971050;28;36239;-59
2022/08/20 01:46:35;;;;;;;8.57;3.63;;;19.50;99.90;;;;;;4969814;28;38498;-59
2022/08/20 01:49:10;;;;;;;9.10;3.50;;;19.50;99.90;;;;;;4971426;28;37632;-59
2022/08/20 01:51:38;;;;;;;9.88;3.65;;;19.50;99.90;;;;;;4970693;28;36766;-58
2022/08/20 01:54:06;;;;;;;9.23;3.97;;;19.50;99.90;;;;;;4970615;28;39019;-59
2022/08/20 01:56:36;;;;;;;8.32;4.03;;;19.50;99.90;;;;;;4970261;28;38032;-58
2022/08/20 01:59:06;;;;;;;13.13;4.63;;;19.50;99.90;;;;;;4968713;28;38437;-58
2022/08/20 02:01:37;;;;;;;7.97;3.90;;;19.40;99.90;;;;;;4968755;28;34798;-59
2022/08/20 02:04:07;;;;;;;10.15;4.05;;;19.40;99.90;;;;;;4970271;28;37644;-58
2022/08/20 02:06:37;;;;;;;11.30;4.22;;;19.40;99.90;;;;;;4970011;28;38613;-59
2022/08/20 02:09:06;;;;;;;8.48;3.33;;;19.30;99.90;;;;;;4970469;28;37794;-58
2022/08/20 02:11:36;;;;;;;10.23;3.83;;;19.30;99.90;;;;;;4970176;28;35251;-59
2022/08/20 02:14:06;;;;;;;11.52;3.58;;;19.30;99.90;;;;;;4974103;28;37411;-59
2022/08/20 02:16:37;;;;;;;8.98;3.60;;;19.30;99.90;;;;;;4973181;28;36884;-59
2022/08/20 02:19:11;;;;;;;10.75;4.22;;;19.20;99.90;;;;;;4973470;28;38683;-59
2022/08/20 02:21:43;;;;;;;10.70;4.10;;;19.20;99.90;;;;;;4973553;28;36446;-59
2022/08/20 02:24:10;;;;;;;9.95;4.00;;;19.10;99.90;;;;;;4972684;28;39326;-59
2022/08/20 02:26:40;;;;;;;12.23;4.45;;;19.10;99.90;;;;;;4971651;28;39190;-58
2022/08/20 02:29:09;;;;;;;8.80;3.83;;;19.00;99.90;;;;;;4970812;28;39184;-59
2022/08/20 02:31:39;;;;;;;9.70;4.28;;;19.00;99.90;;;;;;4972137;28;35020;-59
2022/08/20 02:34:09;;;;;;;10.68;4.75;;;18.90;99.90;;;;;;4972918;28;38706;-59
2022/08/20 02:36:37;;;;;;;10.18;4.53;;;18.90;99.90;;;;;;4972136;28;39527;-58
2022/08/20 02:39:06;;;;;;;10.20;4.00;;;18.90;99.90;;;;;;4972806;28;37655;-58
2022/08/20 02:41:33;;;;;;;8.90;4.20;;;18.80;99.90;;;;;;4971542;28;35291;-58
2022/08/20 02:44:03;;;;;;;8.25;4.05;;;18.80;99.90;;;;;;4971922;28;38829;-58
2022/08/20 02:46:31;;;;;;;8.15;4.10;;;18.70;99.90;;;;;;4972142;28;36886;-58
2022/08/20 02:48:59;;;;;;;8.25;4.25;;;18.70;99.90;;;;;;4972374;28;38427;-58
2022/08/20 02:51:26;;;;;;;9.75;4.40;;;18.70;99.90;;;;;;4973005;28;36393;-59
2022/08/20 02:53:54;;;;;;;9.80;4.45;;;18.70;99.90;;;;;;4973280;28;38801;-58
2022/08/20 02:56:21;;;;;;;10.32;4.18;;;18.60;99.90;;;;;;4971652;28;36903;-59
2022/08/20 02:58:49;;;;;;;10.45;4.45;;;18.60;99.90;;;;;;4972830;28;37979;-58
2022/08/20 03:01:18;;;;;;;11.38;4.30;;;18.60;99.90;;;;;;4972323;28;36964;-59
2022/08/20 03:03:46;;;;;;;12.00;3.70;;;18.60;99.90;;;;;;4972450;28;37593;-59
2022/08/20 03:06:15;;;;;;;10.07;3.70;;;18.50;99.90;;;;;;4972145;28;38131;-59
2022/08/20 03:08:43;;;;;;;9.60;4.05;;;18.50;99.90;;;;;;4972915;28;37107;-58
2022/08/20 03:11:10;;;;;;;9.20;3.90;;;18.40;99.90;;;;;;4971955;28;36651;-59
2022/08/20 03:13:38;;;;;;;9.43;3.72;;;18.50;99.90;;;;;;4971264;28;36264;-59
2022/08/20 03:16:06;;;;;;;11.75;3.63;;;18.50;99.90;;;;;;4972432;28;40591;-58
2022/08/20 03:18:38;;;;;;;13.20;4.10;;;18.40;99.90;;;;;;4971613;28;38199;-58
2022/08/20 03:21:07;;;;;;;10.43;3.92;;;18.40;99.90;;;;;;4972730;28;35270;-58
2022/08/20 03:23:36;;;;;;;9.20;3.63;;;18.40;99.90;;;;;;4971635;28;36308;-58
2022/08/20 03:26:05;;;;;;;9.63;3.55;;;18.40;99.90;;;;;;4971927;28;38458;-58
2022/08/20 03:28:33;;;;;;;9.82;3.20;;;18.30;99.90;;;;;;4972302;28;37923;-59
2022/08/20 03:31:01;;;;;;;10.80;3.35;;;18.30;99.90;;;;;;4972207;28;37653;-59
2022/08/20 03:33:30;;;;;;;9.30;3.08;;;18.30;99.90;;;;;;4972080;28;38369;-59
2022/08/20 03:35:59;;;;;;;11.55;3.17;;;18.30;99.90;;;;;;4972594;28;36860;-59
2022/08/20 03:38:26;;;;;;;9.63;3.47;;;18.20;99.90;;;;;;4971764;28;38702;-58
2022/08/20 03:40:54;;;;;;;11.25;3.40;;;18.20;99.90;;;;;;4971690;28;35219;-58
2022/08/20 03:43:21;;;;;;;9.45;3.28;;;18.20;99.90;;;;;;4971939;28;37723;-58
2022/08/20 03:45:48;;;;;;;8.57;3.30;;;18.20;99.90;;;;;;4971309;28;37882;-59
2022/08/20 03:48:17;;;;;;;9.07;2.65;;;18.20;99.90;;;;;;4972279;28;38573;-59
2022/08/20 03:50:46;;;;;;;11.90;3.55;;;18.10;99.90;;;;;;4972682;28;36302;-60
2022/08/20 03:53:15;;;;;;;11.73;3.80;;;18.20;99.90;;;;;;4972042;28;36297;-59
2022/08/20 03:55:45;;;;;;;10.77;3.13;;;18.10;99.90;;;;;;4972655;28;37977;-59
2022/08/20 03:58:13;;;;;;;8.95;2.95;;;18.10;99.90;;;;;;4973251;28;38292;-59
2022/08/20 04:00:44;;;;;;;12.65;3.72;;;18.00;99.90;;;;;;4971837;28;36692;-59
2022/08/20 04:03:11;;;;;;;10.45;2.97;;;18.00;99.90;;;;;;4972282;28;37687;-58
2022/08/20 04:05:40;;;;;;;11.10;2.97;;;18.00;99.90;;;;;;4972225;28;37044;-59
2022/08/20 04:08:09;;;;;;;8.82;3.05;;;17.90;99.90;;;;;;4970521;28;38916;-59
2022/08/20 04:10:39;;;;;;;9.70;2.67;;;17.90;99.90;;;;;;4972354;28;36267;-59
2022/08/20 04:13:07;;;;;;;8.55;2.72;;;17.90;99.90;;;;;;4971592;28;37707;-60
2022/08/20 04:15:36;;;;;;;9.57;2.65;;;17.80;99.90;;;;;;4972730;28;39009;-58
2022/08/20 04:18:06;;;;;;;7.20;2.15;;;17.80;99.90;;;;;;4972949;28;37904;-59
2022/08/20 04:20:35;;;;;;;10.70;2.67;;;17.80;99.90;;;;;;4971704;28;37051;-59
2022/08/20 04:23:03;;;;;;;13.60;3.25;;;17.70;99.90;;;;;;4970579;28;37385;-59
2022/08/20 04:25:32;;;;;;;9.93;2.42;;;17.70;99.90;;;;;;4971715;28;38668;-59
2022/08/20 04:28:05;;;;;;;8.07;2.50;;;17.70;99.90;;;;;;4971908;28;39097;-59
2022/08/20 04:30:33;;;;;;;8.55;2.70;;;17.70;99.90;;;;;;4972341;28;35249;-59
2022/08/20 04:33:01;;;;;;;8.38;2.40;;;17.70;99.90;;;;;;4973214;28;40274;-61
2022/08/20 04:35:29;;;;;;;9.48;2.75;;;17.70;99.90;;;;;;4971421;28;39039;-59
2022/08/20 04:38:03;;;;;;;8.18;2.20;;;17.80;99.90;;;;;;4971806;28;38776;-58
2022/08/20 04:43:16;;;;;;;7.78;2.60;;;17.70;99.90;;;;;;4972288;28;39677;-59
2022/08/20 04:45:45;;;;;;;8.35;2.42;;;17.70;99.90;;;;;;4972198;28;20078;-59
2022/08/20 04:48:13;;;;;;;7.03;2.42;;;17.70;99.90;;;;;;4971518;28;36517;-58
2022/08/20 04:50:44;;;;;;;11.88;2.65;;;17.70;99.90;;;;;;4970180;28;36566;-58
2022/08/20 04:53:15;;;;;;;6.93;2.10;;;17.70;99.90;;;;;;4971836;28;37463;-58
2022/08/20 04:55:44;;;;;;;10.95;2.72;;;17.70;99.90;;;;;;4970931;28;38344;-58
2022/08/20 04:58:15;;;;;;;10.02;2.33;;;17.70;99.90;;;;;;4971489;28;37904;-58
2022/08/20 05:00:47;;;;;;;13.88;2.40;;;17.70;99.90;;;;;;4969888;28;37027;-59
2022/08/20 05:03:15;;;;;;;8.73;2.33;;;17.70;99.90;;;;;;4971194;28;38639;-58
2022/08/20 05:05:45;;;;;;;9.25;2.30;;;17.70;99.90;;;;;;4970663;28;38257;-58
2022/08/20 05:08:13;;;;;;;10.45;2.05;;;17.80;99.90;;;;;;4970725;28;37905;-58
2022/08/20 05:10:42;;;;;;;16.33;3.58;;;17.80;99.90;;;;;;4971049;28;36765;-58
2022/08/20 05:13:10;;;;;;;12.93;2.20;;;17.80;99.90;;;;;;4970642;28;37743;-58
2022/08/20 05:15:38;;;;;;;11.18;3.30;;;17.70;99.90;;;;;;4970692;28;38883;-58
2022/08/20 05:18:07;;;;;;;10.43;2.60;;;17.70;99.90;;;;;;4970471;28;37661;-60
2022/08/20 05:20:38;;;;;;;11.55;2.75;;;17.70;99.90;;;;;;4970200;28;37351;-58
2022/08/20 05:23:09;;;;;;;10.02;2.35;;;17.60;99.90;;;;;;4970192;28;37812;-58
2022/08/20 05:25:37;;;;;;;9.40;2.05;;;17.60;99.90;;;;;;4970264;28;40126;-58
2022/08/20 05:28:08;;;;;;;10.75;2.35;;;17.60;99.90;;;;;;4970340;28;38137;-58
2022/08/20 05:30:37;;;;;;;8.80;2.17;;;17.60;99.90;;;;;;4969775;28;36047;-58
2022/08/20 05:33:07;;;;;;;7.85;1.83;;;17.60;99.90;;;;;;4970603;28;36303;-58
2022/08/20 05:35:38;;;;;;;8.50;2.33;;;17.60;99.90;;;;;;4969197;28;38129;-58
2022/08/20 05:38:06;;;;;;;6.25;2.13;;;17.60;99.90;;;;;;4970460;28;38712;-58
2022/08/20 05:40:34;;;;;;;12.93;2.72;;;17.70;99.90;;;;;;4969239;28;36950;-58
2022/08/20 05:43:03;;;;;;;10.32;2.35;;;17.80;99.90;;;;;;4969101;28;38388;-58
2022/08/20 05:45:31;;;;;;;12.40;2.60;;;17.80;99.90;;;;;;4970264;28;39553;-59
2022/08/20 05:47:58;;;;;;;7.00;1.75;;;17.90;99.90;;;;;;4973673;28;38049;-58
2022/08/20 05:50:27;;;;;;;8.00;2.30;;;18.00;99.90;;;;;;4969973;28;36939;-58
2022/08/20 05:52:54;;;;;;;7.50;2.10;;;18.20;99.90;;;;;;4972819;28;38480;-59
2022/08/20 05:55:22;;;;;;;7.78;2.10;;;18.30;99.90;;;;;;4973558;28;40132;-59
2022/08/20 05:57:56;;;;;;;13.30;2.53;;;18.50;99.90;;;;;;4972741;28;37784;-58
2022/08/20 06:00:23;;;;;;;14.43;2.38;;;18.60;99.90;;;;;;4973171;28;37385;-58
2022/08/20 06:05:37;;;;;;;10.98;1.83;;;18.80;99.90;;;;;;4973590;28;38896;-59
2022/08/20 06:08:05;;;;;;;10.88;2.03;;;18.90;99.90;;;;;;4973427;28;38452;-59
2022/08/20 06:10:33;;;;;;;6.07;2.15;;;19.10;99.90;;;;;;4973089;28;35319;-58
2022/08/20 06:13:01;;;;;;;5.75;1.98;;;19.20;99.90;;;;;;4972251;28;37685;-58
2022/08/20 06:15:29;;;;;;;7.10;1.60;;;19.20;99.90;;;;;;4972355;28;38173;-59
2022/08/20 06:17:56;;;;;;;9.93;1.85;;;19.40;99.90;;;;;;4971584;28;38225;-59
2022/08/20 06:20:24;;;;;;;6.32;1.50;;;19.50;99.90;;;;;;4972915;28;35307;-58
2022/08/20 06:22:52;;;;;;;7.82;2.08;;;19.60;99.90;;;;;;4972958;28;39028;-59
2022/08/20 06:25:20;;;;;;;8.80;1.85;;;19.70;99.90;;;;;;4972783;28;38054;-59
2022/08/20 06:27:47;;;;;;;7.15;1.40;;;19.80;99.90;;;;;;4972884;28;37597;-59
2022/08/20 06:30:16;;;;;;;7.78;1.73;;;19.80;99.90;;;;;;4972544;28;36382;-59
2022/08/20 06:32:44;;;;;;;11.35;1.90;;;19.90;99.90;;;;;;4971767;28;37699;-59
2022/08/20 06:35:12;;;;;;;11.80;2.15;;;19.90;99.90;;;;;;4973196;28;38718;-59
2022/08/20 06:37:41;;;;;;;5.68;1.35;;;19.90;99.90;;;;;;4973044;28;36522;-59
2022/08/20 06:40:13;;;;;;;5.97;1.90;;;19.90;99.90;;;;;;4972919;28;36411;-58
2022/08/20 06:42:42;;;;;;;6.57;1.75;;;20.00;99.90;;;;;;4972226;28;39477;-59
2022/08/20 06:45:10;;;;;;;6.53;1.67;;;20.00;99.90;;;;;;4973311;28;38897;-58
2022/08/20 06:47:40;;;;;;;8.95;1.65;;;20.10;99.90;;;;;;4971351;28;37592;-59
2022/08/20 06:50:08;;;;;;;7.55;1.50;;;20.00;99.90;;;;;;4973055;28;36716;-56
2022/08/20 06:52:38;;;;;;;7.88;1.48;;;20.10;99.90;;;;;;4972556;28;37368;-56
2022/08/20 06:55:07;;;;;;;10.20;1.48;;;20.10;99.90;;;;;;4972381;28;39587;-56
2022/08/20 06:57:36;;;;;;;8.77;1.55;;;20.00;99.90;;;;;;4971956;28;37731;-56
2022/08/20 07:00:05;;;;;;;6.88;1.35;;;20.00;99.90;;;;;;4971790;28;36768;-57
2022/08/20 07:02:34;;;;;;;10.88;1.80;;;20.00;99.90;;;;;;4971574;28;37684;-56
2022/08/20 07:05:02;;;;;;;11.00;1.50;;;20.10;99.90;;;;;;4971799;28;40747;-56
2022/08/20 07:07:29;;;;;;;7.93;1.83;;;20.20;99.90;;;;;;4972396;28;37947;-56
2022/08/20 07:10:00;;;;;;;6.13;1.30;;;20.10;99.90;;;;;;4971708;28;36286;-56
2022/08/20 07:12:28;;;;;;;7.93;1.45;;;20.20;99.90;;;;;;4972623;28;38087;-56
2022/08/20 07:14:56;;;;;;;8.07;1.30;;;20.30;99.60;;;;;;4971794;28;38129;-56
2022/08/20 07:17:24;;;;;;;5.03;1.50;;;20.30;99.60;;;;;;4970981;28;37744;-56
2022/08/20 07:19:51;;;;;;;6.13;1.73;;;20.40;99.60;;;;;;4971751;28;36742;-56
2022/08/20 07:22:18;;;;;;;7.60;1.83;;;20.40;99.20;;;;;;4971541;28;36201;-56
2022/08/20 07:24:46;;;;;;;5.53;1.33;;;20.50;98.40;;;;;;4971824;28;38674;-59
2022/08/20 07:27:14;;;;;;;12.13;1.80;;;20.50;98.20;;;;;;4971271;28;38706;-59
2022/08/20 07:32:36;;;;;;;6.38;1.83;;;20.50;97.80;;;;;;4970645;28;38627;-59
2022/08/20 07:35:09;;;;;;;6.30;1.13;;;20.50;98.10;;;;;;4971404;28;39441;-58
2022/08/20 07:37:39;;;;;;;4.07;0.90;;;20.60;98.30;;;;;;4971746;28;37534;-58
2022/08/20 07:40:08;;;;;;;7.63;1.50;;;20.60;97.90;;;;;;4970686;28;36718;-59
2022/08/20 07:42:35;;;;;;;4.47;1.00;;;20.60;97.30;;;;;;4971645;28;37508;-60
2022/08/20 07:45:03;;;;;;;5.40;1.13;;;20.70;97.00;;;;;;4971960;28;38027;-58
2022/08/20 07:47:34;;;;;;;4.80;1.08;;;20.70;96.80;;;;;;4971156;28;36499;-59
2022/08/20 07:50:02;;;;;;;6.00;1.38;;;20.70;96.80;;;;;;4972622;28;36078;-59
2022/08/20 07:52:29;;;;;;;5.82;1.05;;;20.70;96.60;;;;;;4971168;28;37569;-59
2022/08/20 07:54:56;;;;;;;4.05;0.90;;;20.70;96.40;;;;;;4969236;28;39151;-58
2022/08/20 07:57:24;;;;;;;4.13;1.10;;;20.70;96.30;;;;;;4971467;28;37578;-59
2022/08/20 07:59:51;;;;;;;6.18;1.25;;;20.70;96.40;;;;;;4970478;28;37452;-59
2022/08/20 08:02:18;;;;;;;7.07;1.15;;;20.80;96.20;;;;;;4971349;28;36261;-58
2022/08/20 08:04:47;;;;;;;7.75;1.55;;;20.80;95.90;;;;;;4971956;28;39910;-59
2022/08/20 08:07:15;;;;;;;4.60;1.10;;;20.80;95.70;;;;;;4971157;28;38911;-58
2022/08/20 08:09:43;;;;;;;5.03;1.20;;;20.80;95.60;;;;;;4970449;28;36946;-60
2022/08/20 08:12:12;;;;;;;7.05;1.23;;;20.80;95.60;;;;;;4971155;28;37430;-58
2022/08/20 08:14:41;;;;;;;6.22;1.20;;;20.90;95.30;;;;;;4970164;28;38900;-58
2022/08/20 08:17:10;;;;;;;7.95;1.80;;;21.00;94.90;;;;;;4970405;28;37961;-59
2022/08/20 08:19:40;;;;;;;9.60;1.63;;;21.00;94.80;;;;;;4971969;28;36407;-58
2022/08/20 08:22:12;;;;;;;6.38;1.40;;;21.10;94.40;;;;;;4970352;28;38172;-58
2022/08/20 08:24:42;;;;;;;8.23;2.30;;;21.10;93.50;;;;;;4970942;28;38630;-59
2022/08/20 08:27:09;;;;;;;9.65;1.48;;;21.20;93.30;;;;;;4970622;28;36444;-59
2022/08/20 08:29:37;;;;;;;9.77;1.42;;;21.20;93.40;;;;;;4970866;28;38413;-58
2022/08/20 08:32:06;;;;;;;6.30;1.10;;;21.30;93.60;;;;;;4970681;28;37467;-59
2022/08/20 08:34:35;;;;;;;5.72;1.55;;;21.30;94.00;;;;;;4970383;28;39376;-58
2022/08/20 08:37:04;;;;;;;6.63;1.40;;;21.40;93.30;;;;;;4971946;28;37527;-59
2022/08/20 08:39:33;;;;;;;4.75;1.40;;;21.50;92.90;;;;;;4971659;28;36506;-58
2022/08/20 08:42:01;;;;;;;8.02;1.58;;;21.60;92.70;;;;;;4970500;28;37502;-59
2022/08/20 08:44:33;;;;;;;5.07;1.05;;;21.60;93.10;;;;;;4970960;28;36999;-59
2022/08/20 08:47:02;;;;;;;7.13;1.50;;;21.70;93.20;;;;;;4970195;28;36493;-58
2022/08/20 08:49:33;;;;;;;6.63;1.60;;;21.80;92.50;;;;;;4971018;28;37920;-59
2022/08/20 08:52:06;;;;;;;8.00;1.65;;;21.90;92.10;;;;;;4972074;28;36362;-58
2022/08/20 08:54:35;;;;;;;6.75;1.30;;;22.00;91.30;;;;;;4971524;28;38845;-58
2022/08/20 08:57:06;;;;;;;7.25;1.60;;;22.00;91.00;;;;;;4971993;28;39084;-58
2022/08/20 08:59:34;;;;;;;7.53;1.20;;;22.00;90.30;;;;;;4971079;28;36687;-59
2022/08/20 09:02:02;;;;;;;7.15;2.00;;;22.10;90.00;;;;;;4970757;28;38635;-58
2022/08/20 09:04:34;;;;;;;5.95;1.38;;;22.20;89.70;;;;;;4970691;28;38229;-59
2022/08/20 09:07:03;;;;;;;4.90;1.10;;;22.30;90.20;;;;;;4971551;28;37751;-59
2022/08/20 09:09:36;;;;;;;8.93;1.67;;;22.40;89.30;;;;;;4971780;28;36680;-59
2022/08/20 09:12:06;;;;;;;7.68;1.38;;;22.50;88.10;;;;;;4971283;28;36387;-58
2022/08/20 09:14:34;;;;;;;7.57;1.63;;;22.60;89.60;;;;;;4970697;28;39088;-58
2022/08/20 09:17:02;;;;;;;6.82;1.92;;;22.70;89.70;;;;;;4970805;28;37976;-59
2022/08/20 09:19:29;;;;;;;8.95;1.27;;;22.80;90.20;;;;;;4970334;28;36395;-59
2022/08/20 09:21:57;;;;;;;5.13;1.35;;;23.00;90.50;;;;;;4973143;28;36238;-59
2022/08/20 09:24:25;;;;;;;7.00;1.67;;;23.10;88.10;;;;;;4974780;28;38164;-59
2022/08/20 09:26:54;;;;;;;4.55;1.10;;;23.20;87.80;;;;;;4973689;28;39569;-59
2022/08/20 09:29:21;;;;;;;8.55;1.27;;;23.20;86.60;;;;;;4974339;28;36703;-59
2022/08/20 09:31:48;;;;;;;9.82;2.17;;;23.20;85.50;;;;;;4973641;28;37318;-59
2022/08/20 09:34:16;;;;;;;4.50;1.35;;;23.40;83.40;;;;;;4974149;28;37927;-59
2022/08/20 09:36:43;;;;;;;7.53;1.35;;;23.50;83.20;;;;;;4974511;28;38486;-59
2022/08/20 09:39:11;;;;;;;7.05;1.65;;;23.60;82.50;;;;;;4974722;28;36295;-59
2022/08/20 09:41:38;;;;;;;6.70;1.40;;;23.80;82.40;;;;;;4974292;28;38066;-59
2022/08/20 09:44:07;;;;;;;5.38;1.20;;;23.80;81.80;;;;;;4973211;28;37935;-59
2022/08/20 09:46:34;;;;;;;5.07;1.00;;;24.00;81.30;;;;;;4972806;28;37730;-59
2022/08/20 09:49:01;;;;;;;10.30;1.30;;;24.10;81.60;;;;;;4974197;28;36543;-59
2022/08/20 09:51:29;;;;;;;7.60;1.70;;;24.10;81.30;;;;;;4973574;28;38558;-59
2022/08/20 09:53:56;;;;;;;9.65;1.90;;;24.00;80.10;;;;;;4974001;28;38787;-59
2022/08/20 09:56:24;;;;;;;9.85;2.13;;;24.00;80.60;;;;;;4973795;28;36522;-59
2022/08/20 09:58:53;;;;;;;7.22;1.30;;;24.00;80.00;;;;;;4973930;28;36795;-59
2022/08/20 10:01:22;;;;;;;6.00;1.60;;;24.10;79.70;;;;;;4973187;28;36235;-59
2022/08/20 10:03:50;;;;;;;8.10;1.70;;;24.20;78.90;;;;;;4972863;28;38143;-58
2022/08/20 10:06:19;;;;;;;5.75;1.33;;;24.30;77.30;;;;;;4972683;28;36351;-58
2022/08/20 10:08:46;;;;;;;9.25;1.63;;;24.40;77.40;;;;;;4973865;28;35335;-58
2022/08/20 10:11:14;;;;;;;5.90;1.15;;;24.40;77.60;;;;;;4974048;28;39024;-59
2022/08/20 10:13:41;;;;;;;6.32;1.30;;;24.50;74.80;;;;;;4973141;28;39138;-59
2022/08/20 10:16:09;;;;;;;7.32;1.30;;;24.50;72.70;;;;;;4973908;28;39218;-59
2022/08/20 10:18:37;;;;;;;4.57;1.27;;;24.60;72.70;;;;;;4972705;28;35329;-59
2022/08/20 10:21:09;;;;;;;6.20;1.40;;;24.60;70.50;;;;;;4973446;28;39864;-59
2022/08/20 10:23:36;;;;;;;6.50;1.80;;;24.60;70.40;;;;;;4973133;28;38154;-59
2022/08/20 10:26:04;;;;;;;5.00;1.45;;;24.60;69.80;;;;;;4972874;28;38469;-59
2022/08/20 10:28:31;;;;;;;7.65;1.42;;;24.70;70.40;;;;;;4973458;28;36370;-59
2022/08/20 10:30:58;;;;;;;5.28;1.45;;;24.80;69.40;;;;;;4971804;28;39503;-59
2022/08/20 10:33:26;;;;;;;5.93;1.08;;;24.70;69.10;;;;;;4972138;28;40109;-59
2022/08/20 10:35:55;;;;;;;7.10;1.67;;;24.60;68.30;;;;;;4973130;28;36540;-58
2022/08/20 10:38:22;;;;;;;5.68;1.52;;;24.40;67.90;;;;;;4973990;28;35408;-58
2022/08/20 10:40:49;;;;;;;7.53;1.55;;;24.20;68.20;;;;;;4973493;28;37648;-59
2022/08/20 10:43:16;;;;;;;5.03;1.48;;;24.10;69.70;;;;;;4973770;28;38175;-59
2022/08/20 10:45:44;;;;;;;9.65;1.73;;;23.90;70.50;;;;;;4972093;28;37787;-58
2022/08/20 10:48:11;;;;;;;6.78;1.60;;;23.80;69.90;;;;;;4972957;28;36603;-58
2022/08/20 10:50:38;;;;;;;6.65;1.17;;;23.70;70.90;;;;;;4972594;28;37793;-59
2022/08/20 10:53:07;;;;;;;7.85;1.65;;;23.50;71.60;;;;;;4973314;28;38527;-59
2022/08/20 10:55:34;;;;;;;10.82;2.35;;;23.50;72.70;;;;;;4973307;28;37928;-58
2022/08/20 10:58:05;;;;;;;9.13;1.88;;;23.40;73.30;;;;;;4973356;28;36543;-58
2022/08/20 11:00:33;;;;;;;7.20;1.85;;;23.30;73.90;;;;;;4972539;28;36229;-58
2022/08/20 11:03:00;;;;;;;7.95;1.92;;;23.20;74.70;;;;;;4970259;28;39074;-58
2022/08/20 11:05:27;;;;;;;8.20;1.88;;;23.10;76.50;;;;;;4972390;28;38120;-58
2022/08/20 11:07:55;;;;;;;6.70;1.75;;;23.00;77.40;;;;;;4972764;28;35311;-59
2022/08/20 11:10:25;;;;;;;5.07;1.48;;;23.00;78.90;;;;;;4971687;28;37648;-58
2022/08/20 11:12:53;;;;;;;8.90;1.85;;;22.90;80.20;;;;;;4971888;28;38595;-59
2022/08/20 11:15:20;;;;;;;7.68;2.33;;;22.90;80.00;;;;;;4971804;28;38097;-58
2022/08/20 11:17:47;;;;;;;8.52;1.90;;;22.90;80.30;;;;;;4972256;28;37231;-58
2022/08/20 11:20:17;;;;;;;7.95;1.38;;;22.90;80.20;;;;;;4971808;28;36360;-59
2022/08/20 11:22:44;;;;;;;9.00;2.13;;;23.10;80.60;;;;;;4971941;28;38178;-59
2022/08/20 11:25:11;;;;;;;5.53;1.13;;;23.30;81.10;;;;;;4971769;28;36517;-59
2022/08/20 11:27:43;;;;;;;6.30;1.63;;;23.50;76.80;;;;;;4971888;28;37577;-59
2022/08/20 11:30:14;;;;;;;9.85;1.60;;;23.70;74.20;;;;;;4972101;28;37729;-58
2022/08/20 11:32:41;;;;;;;7.18;1.80;;;24.00;73.80;;;;;;4971103;28;38245;-59
2022/08/20 11:35:10;;;;;;;6.47;1.52;;;24.10;71.10;;;;;;4972311;28;37608;-59
2022/08/20 11:37:37;;;;;;;8.52;2.00;;;24.20;72.00;;;;;;4971530;28;36798;-59
2022/08/20 11:40:06;;;;;;;6.75;1.60;;;24.40;72.20;;;;;;4971701;28;37831;-59
2022/08/20 11:42:33;;;;;;;10.05;2.25;;;24.50;73.60;;;;;;4971820;28;36812;-59
2022/08/20 11:45:02;;;;;;;6.65;1.30;;;24.70;71.30;;;;;;4971493;28;38130;-59
2022/08/20 11:47:32;;;;;;;5.57;1.40;;;24.80;71.50;;;;;;4969754;28;37770;-59
2022/08/20 11:50:01;;;;;;;6.70;1.40;;;24.90;70.80;;;;;;4972513;28;37379;-58
2022/08/20 11:52:29;;;;;;;5.28;1.33;;;24.90;67.90;;;;;;4971746;28;38112;-58
2022/08/20 11:54:57;;;;;;;4.70;1.33;;;24.80;66.90;;;;;;4972071;28;36569;-56
2022/08/20 11:57:26;;;;;;;8.40;1.58;;;24.50;66.20;;;;;;4971301;28;35372;-56
2022/08/20 11:59:55;;;;;;;7.53;1.40;;;24.40;67.00;;;;;;4971458;28;37496;-56
2022/08/20 12:02:24;;;;;;;5.05;1.42;;;24.40;67.10;;;;;;4971970;28;38447;-56
2022/08/20 12:04:51;;;;;;;6.20;1.42;;;24.50;66.60;;;;;;4971917;28;37588;-56
2022/08/20 12:07:20;;;;;;;5.95;1.65;;;24.60;68.10;;;;;;4972451;28;35256;-56
2022/08/20 12:09:49;;;;;;;6.20;1.50;;;24.70;67.40;;;;;;4971924;28;37655;-56
2022/08/20 12:12:18;;;;;;;4.47;1.23;;;24.70;65.10;;;;;;4973091;28;39024;-56
2022/08/20 12:14:45;;;;;;;6.38;1.58;;;24.70;65.10;;;;;;4972017;28;38022;-56
2022/08/20 12:17:18;;;;;;;7.45;1.55;;;24.60;64.70;;;;;;4972115;28;35319;-56
2022/08/20 12:19:47;;;;;;;;;;;24.60;65.00;;;;;;4972758;28;38492;-56
2022/08/20 12:22:14;;;;;;;4.53;1.40;;;24.50;65.00;;;;;;4972473;28;39579;-56
2022/08/20 12:24:41;;;;;;;6.35;1.90;;;24.40;66.00;;;;;;4972918;28;37746;-56
2022/08/20 12:27:11;;;;;;;9.40;1.83;;;24.50;67.60;;;;;;4972145;28;36654;-56
2022/08/20 12:29:39;;;;;;;6.10;1.95;;;24.50;65.80;;;;;;4971663;28;36954;-57
2022/08/20 12:32:07;;;;;;;5.80;1.33;;;24.40;66.20;;;;;;4972707;28;37025;-56
2022/08/20 12:34:35;;;;;;;6.38;1.60;;;24.40;66.80;;;;;;4972178;28;39337;-56
2022/08/20 12:37:07;;;;;;;6.68;2.25;;;24.50;67.40;;;;;;4971974;28;38330;-56
2022/08/20 12:39:35;;;;;;;7.53;1.70;;;24.50;66.50;;;;;;4971642;28;39550;-56
2022/08/20 12:42:02;;;;;;;8.27;1.52;;;24.50;66.10;;;;;;4971631;28;39571;-57
2022/08/20 12:44:29;;;;;;;7.10;1.67;;;24.50;66.70;;;;;;4970706;28;38548;-59
2022/08/20 12:47:06;;;;;;;6.57;1.50;;;24.40;66.70;;;;;;4971986;28;35253;-59
2022/08/20 12:49:34;;;;;;;7.13;1.60;;;24.30;66.40;;;;;;4972261;28;37645;-59
2022/08/20 12:52:01;;;;;;;7.45;1.75;;;24.20;66.50;;;;;;4971241;28;40014;-59
2022/08/20 12:54:30;;;;;;;5.38;1.42;;;24.10;66.40;;;;;;4971260;28;37680;-59
2022/08/20 12:56:57;;;;;;;4.80;1.55;;;24.10;67.50;;;;;;4971318;28;35402;-59
2022/08/20 12:59:25;;;;;;;6.50;1.98;;;24.00;67.20;;;;;;4970135;28;37484;-59